Salida, CO

11:16 PM MST on November 27, 2014 (GMT -0700)
Salida | Change Station
CLOSE
Current Station
Airport
Location: Salida,
Elevation: 7523 ft
Nearby Weather Stations

Elev 7523 ft 38.54 °N, 106.05 °W | Updated 21 minutes ago

Clear
Clear
47 °F
Feels Like 47 °F
N
22
Wind Variable Wind from SW
Gusts 26 mph

Today
High -- | Low -- °F
--% Chance of Precip.
Yesterday
High -- | Low -- °F
Precip. -- in
6:58 AM 4:44 PM
Waxing Crescent, 37% visible
Pressure 30.31 in
Visibility 10.0 miles
Clouds Clear
Dew Point 14 °F
Humidity 26%
Rainfall 0.00 in
Snow Depth Not available.
UV 0 out of 12
Pollen .10 out of 12
Air Quality Not available.
Flu Activity Not available.
METAR KANK 280555Z AUTO 23019G23KT 10SM CLR 08/M10 A3031 RMK AO1 T00811103 10130 20080 401530002

More Conditions Fewer Conditions

Pressure 30.31 in
Visibility 10.0 miles
Clouds Clear
Dew Point 14 °F
Humidity 26%
Rainfall 0.00 in
Snow Depth Not available.
UV 0 out of 12
Pollen .10 out of 12
Air Quality Not available.
Flu Activity Not available.
METAR KANK 280555Z AUTO 23019G23KT 10SM CLR 08/M10 A3031 RMK AO1 T00811103 10130 20080 401530002

More Conditions Fewer Conditions

10-Day Weather Forecast

Almanac

Astronomy

Nov. 27, 2014 Rise Set
Actual Time
Civil Twilight
Nautical Twilight
Astronomical Twilight
Moon
Length of Visible Light
Length of Day
Tomorrow will be .
, % of the Moon is Illuminated

Today's Extremes

State Highs State Lows

Community

WunderPhotos

Upload Photos

1,774,197 photos uploaded!

WunderBlogs® & News

Nearby

Air Quality

  Air Quality AQ Index Pollutant
Not available.

Snow Depth

Station Depth Elevation

Earthquake Activity

City Distance Mag. Time & Date
Minimum magnitude displayed is 2.5.

Coastal Water Temperatures

Place Temperature

Nearby Weather Stations